Estherville, IA (51334)

7:15 PM CDT on September 23, 2014 (GMT -0500)
Estherville Municipal | Change Station
CLOSE
Current Station
Airport
Location: Estherville,
Elevation: 1316 ft
Nearby Weather Stations

Elev 1316 ft 43.40 °N, 94.75 °W | Updated 23 minutes ago

Overcast
Overcast
60 °F
Feels Like 60 °F
N
13
Wind Variable Wind from SE

Today
High -- | Low -- °F
--% Chance of Precip.
Yesterday
High -- | Low -- °F
Precip. -- in
7:07 AM 7:14 PM
Waning Crescent, 0% visible
Pressure 30.12 in
Visibility 10.0 miles
Clouds Overcast 6000 ft
Dew Point 54 °F
Humidity 80%
Rainfall 0.02 in
Snow Depth Not available.
UV 0 out of 12
Pollen 1.50 out of 12
Air Quality Not available.
Flu Activity Not available.
METAR KEST 232352Z AUTO 14011KT 10SM OVC060 16/12 A3011 RMK AO2 SLP199 60002 T01560122 10200 20150 58010

More Conditions Fewer Conditions

Pressure 30.12 in
Visibility 10.0 miles
Clouds Overcast 6000 ft
Dew Point 54 °F
Humidity 80%
Rainfall 0.02 in
Snow Depth Not available.
UV 0 out of 12
Pollen 1.50 out of 12
Air Quality Not available.
Flu Activity Not available.
METAR KEST 232352Z AUTO 14011KT 10SM OVC060 16/12 A3011 RMK AO2 SLP199 60002 T01560122 10200 20150 58010

More Conditions Fewer Conditions

10-Day Weather Forecast

Almanac

Astronomy

Sep. 23, 2014 Rise Set
Actual Time 7:07 AM CDT 7:14 PM CDT
Civil Twilight 6:39 AM CDT 7:43 PM CDT
Nautical Twilight 6:05 AM CDT 8:16 PM CDT
Astronomical Twilight 5:31 AM CDT 8:50 PM CDT
Moon 6:32 AM CDT (9/23) 6:53 PM CDT (9/23)
Length of Visible Light 13h 04m
Length of Day
12h 07m
Tomorrow will be 2m 57s shorter.
Waning Crescent, 0% of the Moon is Illuminated
Today
Waning Crescent
Sep 24
New
Oct 1
First Quarter
Oct 8
Full
Oct 15
Last Quarter

Today's Extremes

State Highs State Lows

Community

WunderPhotos

Upload Photos

1,755,828 photos uploaded!

WunderBlogs® & News

Nearby

Snow Depth

Station Depth Elevation
No new snow has been reported.

Earthquake Activity

City Distance Mag. Time & Date
No recent earthquake activity has been reported nearby.
Minimum magnitude displayed is 2.5.

Coastal Water Temperatures

Place Temperature
No Stations Reporting

Nearby Weather Stations